createdAt,value
2023-06-17T00:04:04.775Z,99501.16
2023-06-17T00:09:08.598Z,99488.97
2023-06-17T00:14:10.842Z,99507.03
2023-06-17T00:19:17.374Z,99497.25
2023-06-17T00:24:22.972Z,99481.44
2023-06-17T00:29:25.217Z,99476.16
2023-06-17T00:34:27.448Z,99459.28
2023-06-17T00:39:29.748Z,99465.31
2023-06-17T00:44:32.084Z,99454.41
2023-06-17T00:49:37.644Z,99465.88
2023-06-17T00:54:41.989Z,99468.88
2023-06-17T00:59:45.976Z,99469.00
2023-06-17T01:04:48.508Z,99445.13
2023-06-17T01:10:06.647Z,99443.03
2023-06-17T01:15:12.151Z,99450.41
2023-06-17T01:20:15.306Z,99466.97
2023-06-17T01:25:17.623Z,99464.88
2023-06-17T01:30:21.777Z,99481.34
2023-06-17T01:35:25.759Z,99488.69
2023-06-17T01:40:31.631Z,99462.94
2023-06-17T01:45:34.755Z,99476.44
2023-06-17T01:50:37.437Z,99464.00
2023-06-17T01:55:39.786Z,99468.25
2023-06-17T02:00:42.092Z,99462.31
2023-06-17T02:05:44.693Z,99453.59
2023-06-17T02:10:46.969Z,99468.88
2023-06-17T02:15:49.248Z,99455.28
2023-06-17T02:20:51.807Z,99455.72
2023-06-17T02:25:54.313Z,99456.41
2023-06-17T02:30:56.621Z,99455.06
2023-06-17T02:35:59.415Z,99451.53
2023-06-17T02:41:01.702Z,99448.09
2023-06-17T02:46:04.016Z,99444.91
2023-06-17T02:51:06.305Z,99444.97
2023-06-17T02:56:08.642Z,99452.16
2023-06-17T03:01:12.753Z,99450.53
2023-06-17T03:06:17.253Z,99454.41
2023-06-17T03:11:19.591Z,99451.22
2023-06-17T03:16:22.474Z,99467.50
2023-06-17T03:21:24.713Z,99456.31
2023-06-17T03:26:27.185Z,99465.31
2023-06-17T03:31:29.752Z,99473.78
2023-06-17T03:36:32.004Z,99483.06
2023-06-17T03:41:34.223Z,99491.22
2023-06-17T03:46:36.481Z,99481.59
2023-06-17T03:51:41.202Z,99482.91
2023-06-17T03:56:43.542Z,99490.19
2023-06-17T04:01:45.845Z,99468.69
2023-06-17T04:06:48.055Z,99479.78
2023-06-17T04:11:50.265Z,99473.31
2023-06-17T04:16:52.541Z,99484.91
2023-06-17T04:21:54.864Z,99494.94
2023-06-17T04:26:57.155Z,99492.34
2023-06-17T04:31:59.412Z,99487.00
2023-06-17T04:37:02.095Z,99494.22
2023-06-17T04:42:04.607Z,99505.31
2023-06-17T04:47:11.851Z,99508.56
2023-06-17T04:52:20.934Z,99514.00
2023-06-17T04:57:23.262Z,99528.72
2023-06-17T05:02:25.594Z,99523.63
2023-06-17T05:07:28.010Z,99534.84
2023-06-17T05:12:30.539Z,99554.16
2023-06-17T05:17:32.861Z,99540.03
2023-06-17T05:22:35.202Z,99554.75
2023-06-17T05:27:39.107Z,99550.41
2023-06-17T05:32:41.435Z,99566.13
2023-06-17T05:37:43.714Z,99568.81
2023-06-17T05:42:45.947Z,99587.38
2023-06-17T05:47:48.239Z,99589.63
2023-06-17T05:52:50.454Z,99589.88
2023-06-17T05:57:53.625Z,99588.03
2023-06-17T06:02:55.958Z,99592.41
2023-06-17T06:07:58.241Z,99610.03
2023-06-17T06:13:01.036Z,99581.72
2023-06-17T06:18:03.685Z,99594.13
2023-06-17T06:23:06.010Z,99615.94
2023-06-17T06:28:08.278Z,99624.59
2023-06-17T06:33:10.635Z,99613.09
2023-06-17T06:38:12.869Z,99622.63
2023-06-17T06:43:15.144Z,99623.03
2023-06-17T06:48:17.358Z,99619.69
2023-06-17T06:53:20.912Z,99617.47
2023-06-17T06:58:23.168Z,99619.53
2023-06-17T07:03:25.588Z,99613.56
2023-06-17T07:08:27.869Z,99625.19
2023-06-17T07:13:30.808Z,99621.59
2023-06-17T07:18:33.482Z,99627.06
2023-06-17T07:23:35.743Z,99622.91
2023-06-17T07:28:38.029Z,99632.50
2023-06-17T07:33:41.796Z,99609.88
2023-06-17T07:38:44.084Z,99629.56
2023-06-17T07:43:46.294Z,99639.31
2023-06-17T07:48:48.492Z,99648.59
2023-06-17T07:53:50.716Z,99636.53
2023-06-17T07:58:52.974Z,99652.06
2023-06-17T08:03:55.447Z,99656.88
2023-06-17T08:08:57.869Z,99664.75
2023-06-17T08:14:00.075Z,99663.03
2023-06-17T08:19:03.415Z,99646.78
2023-06-17T08:24:26.921Z,99663.03
2023-06-17T08:29:29.326Z,99665.63
2023-06-17T08:34:33.880Z,99654.31
2023-06-17T08:39:41.170Z,99657.94
2023-06-17T08:44:45.709Z,99642.56
2023-06-17T08:49:48.422Z,99647.66
2023-06-17T08:54:51.045Z,99650.03
2023-06-17T08:59:53.238Z,99644.59
2023-06-17T09:04:56.221Z,99640.16
2023-06-17T09:10:12.917Z,99643.34
2023-06-17T09:15:19.293Z,99639.66
2023-06-17T09:20:22.174Z,99629.81
2023-06-17T09:25:24.967Z,99628.13
2023-06-17T09:30:27.264Z,99635.06
2023-06-17T09:35:29.557Z,99631.50
2023-06-17T09:40:35.281Z,99635.63
2023-06-17T09:45:38.173Z,99619.81
2023-06-17T09:50:40.885Z,99652.31
2023-06-17T09:55:43.531Z,99636.25
2023-06-17T10:00:48.168Z,99633.44
2023-06-17T10:05:56.814Z,99644.75
2023-06-17T10:11:01.715Z,99637.09
2023-06-17T10:16:11.072Z,99637.00
2023-06-17T10:21:14.916Z,99629.72
2023-06-17T10:26:17.188Z,99617.22
2023-06-17T10:31:28.637Z,99638.63
2023-06-17T10:36:31.676Z,99644.72
2023-06-17T10:41:39.768Z,99651.03
2023-06-17T10:46:42.048Z,99627.66
2023-06-17T10:51:57.891Z,99624.69
2023-06-17T10:57:05.964Z,99612.63
2023-06-17T11:02:09.388Z,99613.63
2023-06-17T11:07:15.141Z,99609.66
2023-06-17T11:12:18.044Z,99615.03
2023-06-17T11:17:20.320Z,99612.72
2023-06-17T11:22:23.906Z,99616.91
2023-06-17T11:27:26.284Z,99602.72
2023-06-17T11:32:28.832Z,99610.09
2023-06-17T11:37:31.560Z,99610.78
2023-06-17T11:42:34.359Z,99616.72
2023-06-17T11:47:37.579Z,99624.84
2023-06-17T11:52:39.938Z,99616.84
2023-06-17T11:57:44.368Z,99636.38
2023-06-17T12:02:46.802Z,99624.72
2023-06-17T12:07:49.160Z,99620.50
2023-06-17T12:12:53.059Z,99620.72
2023-06-17T12:17:58.464Z,99632.88
2023-06-17T12:23:00.736Z,99618.78
2023-06-17T12:28:03.660Z,99617.47
2023-06-17T12:33:06.019Z,99624.53
2023-06-17T12:38:09.648Z,99621.09
2023-06-17T12:43:12.827Z,99614.59
2023-06-17T12:48:15.315Z,99622.47
2023-06-17T12:53:17.656Z,99606.13
2023-06-17T12:58:19.859Z,99640.69
2023-06-17T13:03:22.972Z,99635.44
2023-06-17T13:08:25.204Z,99634.44
2023-06-17T13:13:28.645Z,99635.44
2023-06-17T13:18:30.940Z,99627.00
2023-06-17T13:23:33.248Z,99632.72
2023-06-17T13:28:36.473Z,99632.44
2023-06-17T13:33:39.304Z,99663.44
2023-06-17T13:38:41.793Z,99662.56
2023-06-17T13:43:44.129Z,99674.59
2023-06-17T13:48:46.397Z,99684.25
2023-06-17T13:53:48.614Z,99675.56
2023-06-17T13:58:50.894Z,99698.38
2023-06-17T14:03:53.540Z,99674.97
2023-06-17T14:08:55.795Z,99686.72
2023-06-17T14:13:58.167Z,99695.72
2023-06-17T14:19:01.055Z,99689.13
2023-06-17T14:24:07.428Z,99703.84
2023-06-17T14:29:11.091Z,99708.31
2023-06-17T14:34:13.312Z,99712.47
2023-06-17T14:39:15.859Z,99714.81
2023-06-17T14:44:18.472Z,99709.84
2023-06-17T14:49:20.737Z,99726.22
2023-06-17T14:54:22.994Z,99737.47
2023-06-17T14:59:25.327Z,99721.03
2023-06-17T15:04:28.139Z,99723.91
2023-06-17T15:09:33.594Z,99736.25
2023-06-17T15:14:38.618Z,99752.16
2023-06-17T15:19:41.182Z,99737.19
2023-06-17T15:24:43.605Z,99752.97
2023-06-17T15:29:45.950Z,99755.66
2023-06-17T15:34:48.344Z,99757.50
2023-06-17T15:39:50.734Z,99760.31
2023-06-17T15:44:52.958Z,99768.25
2023-06-17T15:49:55.288Z,99762.69
2023-06-17T15:54:58.139Z,99766.97
2023-06-17T16:00:00.444Z,99770.84
2023-06-17T16:05:03.211Z,99766.91
2023-06-17T16:10:05.748Z,99784.66
2023-06-17T16:15:08.625Z,99800.59
2023-06-17T16:20:11.665Z,99790.44
2023-06-17T16:25:13.984Z,99812.13
2023-06-17T16:30:16.418Z,99811.03
2023-06-17T16:35:18.732Z,99813.25
2023-06-17T16:40:21.481Z,99827.31
2023-06-17T16:45:24.284Z,99838.72
2023-06-17T16:50:26.910Z,99822.69
2023-06-17T17:00:55.786Z,99846.50
2023-06-17T17:06:02.399Z,99852.59
2023-06-17T17:11:05.975Z,99861.16
2023-06-17T17:16:08.390Z,99869.03
2023-06-17T17:21:10.907Z,99880.63
2023-06-17T17:26:13.891Z,99882.59
2023-06-17T17:31:16.324Z,99875.50
2023-06-17T17:36:19.339Z,99891.16
2023-06-17T17:41:22.175Z,99874.31
2023-06-17T17:46:24.551Z,99894.53
2023-06-17T17:51:27.078Z,99890.72
2023-06-17T17:56:29.761Z,99887.78
2023-06-17T18:01:32.754Z,99913.50
2023-06-17T18:06:34.986Z,99914.41
2023-06-17T18:11:37.666Z,99891.84
2023-06-17T18:16:40.138Z,99926.75
2023-06-17T18:21:42.336Z,99921.13
2023-06-17T18:26:44.637Z,99908.75
2023-06-17T18:31:48.587Z,99940.38
2023-06-17T18:36:51.267Z,99945.03
2023-06-17T18:41:53.495Z,99931.97
2023-06-17T18:46:56.183Z,99941.06
2023-06-17T18:51:58.700Z,99955.25
2023-06-17T18:57:01.580Z,99957.81
2023-06-17T19:02:04.850Z,99982.13
2023-06-17T19:07:07.172Z,99981.53
2023-06-17T19:12:09.944Z,99993.88
2023-06-17T19:17:12.251Z,99992.88
2023-06-17T19:22:14.468Z,99997.00
2023-06-17T19:27:16.736Z,100005.63
2023-06-17T19:32:19.067Z,100006.09
2023-06-17T19:37:22.723Z,100013.75
2023-06-17T19:42:25.045Z,100015.69
2023-06-17T19:47:28.596Z,100009.97
2023-06-17T19:52:31.016Z,100007.50
2023-06-17T19:57:33.349Z,100017.34
2023-06-17T20:02:35.662Z,100006.69
2023-06-17T20:07:37.956Z,100017.34
2023-06-17T20:12:40.257Z,100002.91
2023-06-17T20:17:42.547Z,100001.25
2023-06-17T20:22:44.844Z,100015.19
2023-06-17T20:27:47.300Z,100035.13
2023-06-17T20:32:49.729Z,100013.81
2023-06-17T20:37:52.697Z,100005.41
2023-06-17T20:42:55.122Z,100029.41
2023-06-17T20:47:57.727Z,100011.16
2023-06-17T20:53:00.038Z,100036.56
2023-06-17T20:58:02.468Z,100035.44
2023-06-17T21:03:04.916Z,100024.00
2023-06-17T21:08:07.407Z,100026.19
2023-06-17T21:13:09.627Z,100015.25
2023-06-17T21:18:11.795Z,100021.25
2023-06-17T21:23:14.027Z,100024.81
2023-06-17T21:28:16.253Z,100023.19
2023-06-17T21:33:18.724Z,100013.09
2023-06-17T21:38:21.673Z,100011.72
2023-06-17T21:43:24.068Z,100007.09
2023-06-17T21:48:26.410Z,100007.91
2023-06-17T21:53:28.727Z,100020.19
2023-06-17T21:58:31.114Z,100000.56
2023-06-17T22:03:33.430Z,100016.41
2023-06-17T22:08:43.143Z,100017.78
2023-06-17T22:13:46.744Z,100012.03
2023-06-17T22:18:48.977Z,100009.03
2023-06-17T22:23:51.304Z,100013.16
2023-06-17T22:28:53.565Z,100011.78
2023-06-17T22:33:55.786Z,100007.16
2023-06-17T22:38:58.007Z,100020.53
2023-06-17T22:44:00.783Z,100004.38
2023-06-17T22:49:03.017Z,100023.81
2023-06-17T22:54:05.329Z,100019.16
2023-06-17T22:59:07.549Z,100013.66
2023-06-17T23:04:09.919Z,100008.22
2023-06-17T23:09:12.347Z,100001.94
2023-06-17T23:14:14.635Z,100016.94
2023-06-17T23:19:16.955Z,100022.69
2023-06-17T23:24:19.889Z,100017.75
2023-06-17T23:29:23.892Z,100012.31
2023-06-17T23:34:26.094Z,100002.72
2023-06-17T23:39:28.606Z,100034.09
2023-06-17T23:44:30.806Z,100021.81
2023-06-17T23:49:42.304Z,100024.53
2023-06-17T23:54:44.685Z,100043.59
2023-06-17T23:59:47.737Z,100027.75
